createdAt,value
2023-05-07T00:01:00.562Z,147783.56
2023-05-07T00:02:03.976Z,147784.75
2023-05-07T00:03:06.530Z,147777.50
2023-05-07T00:04:12.486Z,147779.94
2023-05-07T00:05:15.789Z,147793.22
2023-05-07T00:06:18.348Z,147782.34
2023-05-07T00:07:20.722Z,147771.47
2023-05-07T00:08:22.924Z,147755.69
2023-05-07T00:09:25.100Z,147765.41
2023-05-07T00:10:27.441Z,147777.50
2023-05-07T00:11:29.610Z,147775.09
2023-05-07T00:12:34.553Z,147777.50
2023-05-07T00:13:36.838Z,147781.13
2023-05-07T00:14:39.069Z,147792.00
2023-05-07T00:15:41.259Z,147794.44
2023-05-07T00:16:43.496Z,147779.94
2023-05-07T00:17:45.754Z,147793.22
2023-05-07T00:18:47.947Z,147801.75
2023-05-07T00:19:50.257Z,147804.16
2023-05-07T00:20:52.436Z,147809.00
2023-05-07T00:21:55.025Z,147790.81
2023-05-07T00:22:57.192Z,147763.00
2023-05-07T00:23:59.340Z,147766.63
2023-05-07T00:25:01.528Z,147760.53
2023-05-07T00:26:04.523Z,147784.75
2023-05-07T00:27:06.662Z,147753.28
2023-05-07T00:28:08.875Z,147756.91
2023-05-07T00:29:11.095Z,147738.78
2023-05-07T00:30:13.651Z,147733.94
2023-05-07T00:31:15.885Z,147758.13
2023-05-07T00:32:18.236Z,147761.75
2023-05-07T00:33:21.642Z,147736.34
2023-05-07T00:34:23.899Z,147737.56
2023-05-07T00:35:26.120Z,147750.88
2023-05-07T00:36:28.281Z,147736.34
2023-05-07T00:37:31.122Z,147723.00
2023-05-07T00:38:33.345Z,147737.56
2023-05-07T00:39:36.820Z,147719.38
2023-05-07T00:40:39.029Z,147712.13
2023-05-07T00:41:49.876Z,147767.84
2023-05-07T00:42:57.701Z,147781.13
2023-05-07T00:43:59.850Z,147690.31
2023-05-07T00:45:02.364Z,147690.31
2023-05-07T00:46:04.762Z,147680.66
2023-05-07T00:47:07.253Z,147697.63
2023-05-07T00:48:09.732Z,147703.66
2023-05-07T00:49:12.518Z,147712.13
2023-05-07T00:50:14.912Z,147695.16
2023-05-07T00:51:18.750Z,147681.84
2023-05-07T00:52:22.665Z,147680.66
2023-05-07T00:53:25.520Z,147678.22
2023-05-07T00:54:27.785Z,147674.59
2023-05-07T00:55:30.511Z,147696.38
2023-05-07T00:56:33.058Z,147695.16
2023-05-07T00:57:38.863Z,147714.53
2023-05-07T00:58:41.790Z,147695.16
2023-05-07T00:59:44.136Z,147669.78
2023-05-07T01:00:46.600Z,147650.38
2023-05-07T01:01:49.378Z,147644.34
2023-05-07T01:02:51.815Z,147639.50
2023-05-07T01:03:54.798Z,147634.69
2023-05-07T01:04:57.724Z,147624.97
2023-05-07T01:06:01.915Z,147668.56
2023-05-07T01:07:09.090Z,147692.75
2023-05-07T01:08:11.616Z,147639.50
2023-05-07T01:09:14.209Z,147634.69
2023-05-07T01:10:17.587Z,147637.09
2023-05-07T01:11:21.415Z,147628.59
2023-05-07T01:12:25.185Z,147637.09
2023-05-07T01:13:28.752Z,147646.75
2023-05-07T01:14:31.999Z,147606.84
2023-05-07T01:15:34.236Z,147624.97
2023-05-07T01:16:37.772Z,147634.69
2023-05-07T01:17:41.979Z,147606.84
2023-05-07T01:18:49.499Z,147593.50
2023-05-07T01:19:51.824Z,147586.25
2023-05-07T01:20:57.156Z,147610.47
2023-05-07T01:22:05.180Z,147620.13
2023-05-07T01:23:12.344Z,147591.06
2023-05-07T01:24:15.568Z,147587.44
2023-05-07T01:25:18.862Z,147585.03
2023-05-07T01:26:25.377Z,147583.81
2023-05-07T01:27:27.875Z,147577.78
2023-05-07T01:28:30.390Z,147570.53
2023-05-07T01:29:35.427Z,147574.16
2023-05-07T01:30:39.224Z,147564.44
2023-05-07T01:31:45.313Z,147545.06
2023-05-07T01:33:04.910Z,147583.81
2023-05-07T01:34:09.589Z,147574.16
2023-05-07T01:35:14.836Z,147574.16
2023-05-07T01:36:19.478Z,147592.28
2023-05-07T01:37:23.392Z,147569.31
2023-05-07T01:38:26.022Z,147566.88
2023-05-07T01:39:30.205Z,147579.00
2023-05-07T01:41:32.350Z,147540.22
2023-05-07T01:42:34.726Z,147535.41
2023-05-07T01:43:37.385Z,147531.72
2023-05-07T01:44:39.590Z,147531.72
2023-05-07T01:45:41.902Z,147534.13
2023-05-07T01:46:44.086Z,147548.69
2023-05-07T01:47:46.926Z,147552.38
2023-05-07T01:48:50.331Z,147557.19
2023-05-07T01:49:52.956Z,147559.63
2023-05-07T01:50:56.718Z,147563.22
2023-05-07T01:51:59.385Z,147564.44
2023-05-07T01:53:02.165Z,147569.31
2023-05-07T01:55:12.117Z,147518.44
2023-05-07T01:56:14.491Z,147520.84
2023-05-07T01:57:18.128Z,147531.72
2023-05-07T01:58:20.414Z,147536.59
2023-05-07T01:59:22.790Z,147520.84
2023-05-07T02:00:25.246Z,147501.47
2023-05-07T02:01:27.500Z,147496.63
2023-05-07T02:02:29.800Z,147506.34
2023-05-07T02:03:34.096Z,147508.78
2023-05-07T02:04:44.029Z,147506.34
2023-05-07T02:05:46.777Z,147522.06
2023-05-07T02:06:59.420Z,147528.09
2023-05-07T02:08:02.043Z,147528.09
2023-05-07T02:09:05.984Z,147551.16
2023-05-07T02:10:08.686Z,147535.41
2023-05-07T02:11:11.130Z,147530.53
2023-05-07T02:12:13.273Z,147523.28
2023-05-07T02:13:15.441Z,147528.09
2023-05-07T02:14:17.833Z,147528.09
2023-05-07T02:15:20.061Z,147508.78
2023-05-07T02:16:23.343Z,147518.44
2023-05-07T02:17:26.975Z,147501.47
2023-05-07T02:18:29.300Z,147518.44
2023-05-07T02:19:31.430Z,147509.97
2023-05-07T02:20:33.773Z,147503.94
2023-05-07T02:21:36.339Z,147518.44
2023-05-07T02:22:38.485Z,147499.06
2023-05-07T02:23:40.772Z,147520.84
2023-05-07T02:24:43.129Z,147535.41
2023-05-07T02:25:45.466Z,147529.31
2023-05-07T02:26:47.837Z,147511.19
2023-05-07T02:27:50.100Z,147516.03
2023-05-07T02:28:53.067Z,147507.56
2023-05-07T02:29:55.300Z,147528.09
2023-05-07T02:30:59.494Z,147506.34
2023-05-07T02:32:02.033Z,147518.44
2023-05-07T02:33:04.481Z,147495.44
2023-05-07T02:34:06.708Z,147489.41
2023-05-07T02:35:09.117Z,147500.28
2023-05-07T02:36:12.900Z,147500.28
2023-05-07T02:37:27.529Z,147484.56
2023-05-07T02:38:29.801Z,147496.63
2023-05-07T02:39:32.219Z,147518.44
2023-05-07T02:40:34.754Z,147519.66
2023-05-07T02:41:36.901Z,147499.06
2023-05-07T02:42:39.143Z,147502.72
2023-05-07T02:43:41.397Z,147484.56
2023-05-07T02:44:43.822Z,147483.34
2023-05-07T02:45:46.220Z,147484.56
2023-05-07T02:46:48.733Z,147483.34
2023-05-07T02:47:50.983Z,147478.53
2023-05-07T02:48:53.161Z,147484.56
2023-05-07T02:49:56.197Z,147514.81
2023-05-07T02:50:59.178Z,147484.56
2023-05-07T02:52:01.782Z,147460.34
2023-05-07T02:53:04.560Z,147465.19
2023-05-07T02:54:06.873Z,147480.94
2023-05-07T02:55:09.568Z,147485.78
2023-05-07T02:56:11.794Z,147480.94
2023-05-07T02:57:14.107Z,147486.97
2023-05-07T02:58:16.270Z,147473.69
2023-05-07T02:59:18.702Z,147467.59
2023-05-07T03:00:21.410Z,147472.47
2023-05-07T03:01:39.551Z,147456.72
2023-05-07T03:02:43.518Z,147457.94
2023-05-07T03:04:46.041Z,147476.09
2023-05-07T03:05:48.307Z,147467.59
2023-05-07T03:06:50.470Z,147472.47
2023-05-07T03:07:52.619Z,147477.31
2023-05-07T03:08:54.792Z,147472.47
2023-05-07T03:09:56.931Z,147472.47
2023-05-07T03:10:59.246Z,147467.59
2023-05-07T03:12:02.680Z,147473.69
2023-05-07T03:13:05.371Z,147468.81
2023-05-07T03:14:07.983Z,147476.09
2023-05-07T03:15:11.423Z,147473.69
2023-05-07T03:16:13.634Z,147466.41
2023-05-07T03:17:17.124Z,147471.28
2023-05-07T03:18:19.501Z,147470.06
2023-05-07T03:19:21.913Z,147486.97
2023-05-07T03:20:24.120Z,147453.09
2023-05-07T03:21:27.484Z,147445.84
2023-05-07T03:22:29.987Z,147439.81
2023-05-07T03:23:32.118Z,147433.72
2023-05-07T03:24:34.345Z,147447.06
2023-05-07T03:25:36.791Z,147442.22
2023-05-07T03:26:38.990Z,147401.06
2023-05-07T03:27:42.866Z,147384.16
2023-05-07T03:28:45.182Z,147407.16
2023-05-07T03:29:49.430Z,147410.78
2023-05-07T03:30:51.896Z,147382.97
2023-05-07T03:31:54.125Z,147386.59
2023-05-07T03:32:56.352Z,147385.38
2023-05-07T03:33:58.880Z,147387.78
2023-05-07T03:35:02.380Z,147384.16
2023-05-07T03:37:01.021Z,147380.53
2023-05-07T03:38:03.391Z,147397.44
2023-05-07T03:39:08.750Z,147387.78
2023-05-07T03:40:15.235Z,147399.88
2023-05-07T03:41:22.447Z,147375.72
2023-05-07T03:42:25.180Z,147380.53
2023-05-07T03:43:28.309Z,147395.03
2023-05-07T03:44:37.593Z,147356.34
2023-05-07T03:45:39.819Z,147356.34
2023-05-07T03:46:47.055Z,147349.09
2023-05-07T03:47:49.297Z,147358.75
2023-05-07T03:48:54.396Z,147353.94
2023-05-07T03:49:56.797Z,147347.88
2023-05-07T03:51:00.549Z,147356.34
2023-05-07T03:52:07.311Z,147387.78
2023-05-07T03:53:09.786Z,147382.97
2023-05-07T03:54:14.970Z,147380.53
2023-05-07T03:55:20.621Z,147368.41
2023-05-07T03:56:28.781Z,147373.28
2023-05-07T03:57:32.494Z,147363.59
2023-05-07T03:58:35.874Z,147378.13
2023-05-07T03:59:42.770Z,147364.78
2023-05-07T04:00:44.985Z,147361.19
2023-05-07T04:01:57.157Z,147349.09
2023-05-07T04:03:01.647Z,147359.97
2023-05-07T04:04:07.048Z,147380.53
2023-05-07T04:05:11.394Z,147361.19
2023-05-07T04:06:17.100Z,147378.13
2023-05-07T04:07:21.109Z,147370.84
2023-05-07T04:08:25.819Z,147382.97
2023-05-07T04:09:30.100Z,147362.38
2023-05-07T04:10:33.197Z,147387.78
2023-05-07T04:11:41.203Z,147380.53
2023-05-07T04:12:45.602Z,147387.78
2023-05-07T04:13:51.971Z,147385.38
2023-05-07T04:14:57.133Z,147395.03
2023-05-07T04:16:00.209Z,147379.34
2023-05-07T04:17:03.776Z,147385.38
2023-05-07T04:18:06.460Z,147387.78
2023-05-07T04:19:08.984Z,147372.09
2023-05-07T04:20:16.492Z,147426.50
2023-05-07T04:21:21.448Z,147397.44
2023-05-07T04:22:24.721Z,147412.00
2023-05-07T04:23:26.992Z,147392.63
2023-05-07T04:24:34.029Z,147419.25
2023-05-07T04:25:37.574Z,147397.44
2023-05-07T04:26:54.170Z,147420.44
2023-05-07T04:27:58.094Z,147418.03
2023-05-07T04:29:02.845Z,147424.06
2023-05-07T04:30:09.420Z,147448.28
2023-05-07T04:31:14.579Z,147441.03
2023-05-07T04:32:16.988Z,147438.63
2023-05-07T04:33:19.348Z,147433.72
2023-05-07T04:34:23.582Z,147408.38
2023-05-07T04:35:25.945Z,147427.69
2023-05-07T04:36:28.705Z,147419.25
2023-05-07T04:37:37.390Z,147419.25
2023-05-07T04:38:40.707Z,147426.50
2023-05-07T04:39:43.155Z,147409.56
2023-05-07T04:40:45.913Z,147436.16
2023-05-07T04:41:51.594Z,147419.25
2023-05-07T04:42:54.129Z,147437.41
2023-05-07T04:43:59.815Z,147455.53
2023-05-07T04:45:03.843Z,147448.28
2023-05-07T04:46:08.434Z,147431.31
2023-05-07T04:47:11.210Z,147445.84
2023-05-07T04:48:15.616Z,147445.84
2023-05-07T04:49:17.793Z,147433.72
2023-05-07T04:50:20.925Z,147451.91
2023-05-07T04:51:24.374Z,147420.44
2023-05-07T04:52:27.422Z,147421.66
2023-05-07T04:53:30.080Z,147433.72
2023-05-07T04:54:33.466Z,147438.63
2023-05-07T04:55:35.930Z,147432.53
2023-05-07T04:56:39.378Z,147438.63
2023-05-07T04:57:42.382Z,147445.84
2023-05-07T04:58:46.216Z,147465.19
2023-05-07T04:59:48.457Z,147470.06
2023-05-07T05:00:50.707Z,147468.81
2023-05-07T05:01:53.297Z,147488.19
2023-05-07T05:02:55.726Z,147473.69
2023-05-07T05:03:58.580Z,147465.19
2023-05-07T05:05:03.190Z,147479.72
2023-05-07T05:06:05.653Z,147450.69
2023-05-07T05:07:10.019Z,147436.16
2023-05-07T05:08:12.439Z,147421.66
2023-05-07T05:09:17.453Z,147409.56
2023-05-07T05:10:20.794Z,147373.28
2023-05-07T05:11:26.215Z,147390.19
2023-05-07T05:12:29.232Z,147414.41
2023-05-07T05:13:31.671Z,147408.38
2023-05-07T05:14:34.212Z,147390.19
2023-05-07T05:15:36.643Z,147404.75
2023-05-07T05:16:39.255Z,147414.41
2023-05-07T05:17:41.718Z,147416.81
2023-05-07T05:18:44.124Z,147382.97
2023-05-07T05:19:48.227Z,147375.72
2023-05-07T05:20:52.096Z,147396.25
2023-05-07T05:21:54.472Z,147370.84
2023-05-07T05:22:56.732Z,147380.53
2023-05-07T05:23:59.646Z,147409.56
2023-05-07T05:25:02.256Z,147361.19
2023-05-07T05:26:04.546Z,147363.59
2023-05-07T05:27:09.214Z,147361.19
2023-05-07T05:28:11.335Z,147361.19
2023-05-07T05:29:13.579Z,147387.78
2023-05-07T05:30:17.894Z,147401.06
2023-05-07T05:31:22.693Z,147390.19
2023-05-07T05:32:26.800Z,147392.63
2023-05-07T05:33:31.524Z,147373.28
2023-05-07T05:34:38.368Z,147376.91
2023-05-07T05:35:41.707Z,147375.72
2023-05-07T05:36:47.333Z,147384.16
2023-05-07T05:37:50.973Z,147376.91
2023-05-07T05:38:54.393Z,147384.16
2023-05-07T05:39:58.310Z,147395.03
2023-05-07T05:41:01.727Z,147393.81
2023-05-07T05:42:05.719Z,147389.00
2023-05-07T05:43:10.813Z,147402.28
2023-05-07T05:44:14.024Z,147395.03
2023-05-07T05:45:18.709Z,147373.28
2023-05-07T05:46:21.758Z,147387.78
2023-05-07T05:47:26.317Z,147385.38
2023-05-07T05:48:31.387Z,147398.66
2023-05-07T05:49:36.157Z,147382.97
2023-05-07T05:50:40.082Z,147376.91
2023-05-07T05:51:42.943Z,147375.72
2023-05-07T05:52:45.369Z,147385.38
2023-05-07T05:53:48.066Z,147402.28
2023-05-07T05:54:50.564Z,147401.06
2023-05-07T05:55:54.036Z,147399.88
2023-05-07T05:56:56.693Z,147395.03
2023-05-07T05:58:01.599Z,147433.72
2023-05-07T05:59:05.404Z,147421.66
2023-05-07T06:00:09.457Z,147460.34
2023-05-07T06:01:20.786Z,147467.59
2023-05-07T06:02:25.181Z,147445.84
2023-05-07T06:03:27.625Z,147447.06
2023-05-07T06:04:31.437Z,147442.22
2023-05-07T06:05:34.143Z,147445.84
2023-05-07T06:06:36.719Z,147472.47
2023-05-07T06:07:39.203Z,147472.47
2023-05-07T06:08:41.627Z,147453.09
2023-05-07T06:09:44.091Z,147454.31
2023-05-07T06:10:46.478Z,147457.94
2023-05-07T06:11:48.830Z,147454.31
2023-05-07T06:12:51.115Z,147456.72
2023-05-07T06:13:53.454Z,147456.72
2023-05-07T06:14:55.970Z,147441.03
2023-05-07T06:15:59.180Z,147460.34
2023-05-07T06:17:01.450Z,147456.72
2023-05-07T06:18:03.895Z,147470.06
2023-05-07T06:19:06.268Z,147454.31
2023-05-07T06:20:09.168Z,147456.72
2023-05-07T06:21:11.800Z,147470.06
2023-05-07T06:22:14.294Z,147473.69
2023-05-07T06:23:17.898Z,147486.97
2023-05-07T06:24:20.540Z,147465.19
2023-05-07T06:25:22.720Z,147474.91
2023-05-07T06:26:24.955Z,147443.44
2023-05-07T06:27:29.065Z,147445.84
2023-05-07T06:28:36.799Z,147474.91
2023-05-07T06:29:41.079Z,147479.72
2023-05-07T06:30:50.953Z,147467.59
2023-05-07T06:31:54.472Z,147482.16
2023-05-07T06:32:57.478Z,147473.69
2023-05-07T06:34:00.632Z,147482.16
2023-05-07T06:35:09.094Z,147506.34
2023-05-07T06:36:13.914Z,147511.19
2023-05-07T06:37:16.087Z,147507.56
2023-05-07T06:38:29.287Z,147532.94
2023-05-07T06:39:31.704Z,147537.81
2023-05-07T06:40:33.969Z,147520.84
2023-05-07T06:41:36.664Z,147532.94
2023-05-07T06:42:44.102Z,147520.84
2023-05-07T06:43:59.386Z,147509.97
2023-05-07T06:45:08.203Z,147525.69
2023-05-07T06:46:12.199Z,147496.63
2023-05-07T06:47:16.115Z,147512.41
2023-05-07T06:48:21.546Z,147511.19
2023-05-07T06:49:34.254Z,147501.47
2023-05-07T06:50:36.551Z,147490.59
2023-05-07T06:51:38.731Z,147503.94
2023-05-07T06:52:40.948Z,147517.22
2023-05-07T06:53:43.124Z,147535.41
2023-05-07T06:54:47.061Z,147530.53
2023-05-07T06:55:52.195Z,147489.41
2023-05-07T06:56:55.603Z,147529.31
2023-05-07T06:58:02.150Z,147540.22
2023-05-07T06:59:04.720Z,147551.16
2023-05-07T07:00:11.953Z,147569.31
2023-05-07T07:01:23.857Z,147540.22
2023-05-07T07:02:26.227Z,147537.81
2023-05-07T07:03:28.492Z,147542.66
2023-05-07T07:04:31.675Z,147552.38
2023-05-07T07:05:41.655Z,147532.94
2023-05-07T07:06:43.902Z,147520.84
2023-05-07T07:07:53.773Z,147502.72
2023-05-07T07:10:14.923Z,147522.06
2023-05-07T07:11:17.089Z,147511.19
2023-05-07T07:12:19.259Z,147508.78
2023-05-07T07:13:21.807Z,147542.66
2023-05-07T07:14:24.650Z,147591.06
2023-05-07T07:15:29.109Z,147612.88
2023-05-07T07:16:32.303Z,147569.31
2023-05-07T07:17:34.593Z,147562.03
2023-05-07T07:18:36.968Z,147574.16
2023-05-07T07:19:40.601Z,147589.88
2023-05-07T07:20:42.857Z,147614.09
2023-05-07T07:21:45.877Z,147623.75
2023-05-07T07:22:49.039Z,147608.03
2023-05-07T07:23:52.537Z,147634.69
2023-05-07T07:24:55.994Z,147627.38
2023-05-07T07:25:59.454Z,147626.16
2023-05-07T07:27:02.874Z,147628.59
2023-05-07T07:28:06.607Z,147641.94
2023-05-07T07:29:08.960Z,147635.88
2023-05-07T07:30:11.581Z,147657.63
2023-05-07T07:31:16.677Z,147632.25
2023-05-07T07:32:19.198Z,147672.19
2023-05-07T07:33:21.632Z,147714.53
2023-05-07T07:34:23.849Z,147729.06
2023-05-07T07:35:26.306Z,147776.31
2023-05-07T07:36:42.547Z,147796.91
2023-05-07T07:37:51.240Z,147781.13
2023-05-07T07:38:55.250Z,147821.09
2023-05-07T07:39:57.956Z,147806.56
2023-05-07T07:41:00.762Z,147819.88
2023-05-07T07:42:03.065Z,147794.44
2023-05-07T07:43:07.101Z,147776.31
2023-05-07T07:44:09.808Z,147758.13
2023-05-07T07:45:13.750Z,147748.44
2023-05-07T07:46:20.349Z,147767.84
2023-05-07T07:47:22.521Z,147794.44
2023-05-07T07:48:26.444Z,147827.13
2023-05-07T07:49:28.743Z,147851.38
2023-05-07T07:50:43.538Z,147842.91
2023-05-07T07:51:49.431Z,147845.31
2023-05-07T07:52:52.406Z,147850.16
2023-05-07T07:53:54.581Z,147828.38
2023-05-07T07:54:56.772Z,147838.06
2023-05-07T07:55:59.742Z,147800.53
2023-05-07T07:57:05.111Z,147775.09
2023-05-07T07:58:09.113Z,147783.56
2023-05-07T07:59:11.310Z,147801.75
2023-05-07T08:00:17.556Z,147824.72
2023-05-07T08:01:19.646Z,147779.94
2023-05-07T08:02:22.848Z,147767.84
2023-05-07T08:03:26.230Z,147811.41
2023-05-07T08:04:34.277Z,147828.38
2023-05-07T08:05:39.581Z,147852.56
2023-05-07T08:06:43.325Z,147859.84
2023-05-07T08:07:47.372Z,147832.00
2023-05-07T08:08:49.613Z,147834.44
2023-05-07T08:09:52.288Z,147850.16
2023-05-07T08:10:57.914Z,147847.75
2023-05-07T08:12:06.870Z,147859.84
2023-05-07T08:13:09.974Z,147804.16
2023-05-07T08:14:14.888Z,147809.00
2023-05-07T08:15:17.859Z,147825.91
2023-05-07T08:16:22.306Z,147817.44
2023-05-07T08:17:26.110Z,147775.09
2023-05-07T08:18:29.965Z,147784.75
2023-05-07T08:19:34.199Z,147792.00
2023-05-07T08:20:40.376Z,147817.44
2023-05-07T08:21:44.746Z,147829.59
2023-05-07T08:22:47.852Z,147805.38
2023-05-07T08:23:50.274Z,147811.41
2023-05-07T08:24:54.420Z,147855.00
2023-05-07T08:25:56.674Z,147870.75
2023-05-07T08:26:59.400Z,147886.47
2023-05-07T08:28:02.277Z,147884.06
2023-05-07T08:29:04.411Z,147914.34
2023-05-07T08:30:07.546Z,147898.63
2023-05-07T08:31:09.857Z,147898.63
2023-05-07T08:32:15.000Z,147914.34
2023-05-07T08:33:17.343Z,147914.34
2023-05-07T08:34:19.546Z,147869.56
2023-05-07T08:35:23.549Z,147834.44
2023-05-07T08:36:26.720Z,147851.38
2023-05-07T08:37:29.164Z,147801.75
2023-05-07T08:38:32.173Z,147819.88
2023-05-07T08:39:34.651Z,147806.56
2023-05-07T08:40:39.903Z,147828.38
2023-05-07T08:41:49.558Z,147812.63
2023-05-07T08:42:54.221Z,147824.72
2023-05-07T08:43:59.561Z,147838.06
2023-05-07T08:45:06.622Z,147835.63
2023-05-07T08:46:12.278Z,147840.47
2023-05-07T08:47:18.810Z,147804.16
2023-05-07T08:48:24.669Z,147813.81
2023-05-07T08:49:34.383Z,147861.09
2023-05-07T08:50:37.727Z,147842.91
2023-05-07T08:51:42.741Z,147845.31
2023-05-07T08:52:45.256Z,147847.75
2023-05-07T08:53:49.640Z,147874.38
2023-05-07T08:54:57.558Z,147863.50
2023-05-07T08:56:02.172Z,147904.66
2023-05-07T08:57:05.586Z,147891.31
2023-05-07T08:58:09.438Z,147903.47
2023-05-07T08:59:15.179Z,147927.75
2023-05-07T09:00:18.715Z,147847.75
2023-05-07T09:01:25.531Z,147842.91
2023-05-07T09:02:28.604Z,147865.94
2023-05-07T09:03:32.219Z,147857.41
2023-05-07T09:04:35.576Z,147887.69
2023-05-07T09:05:38.219Z,147868.34
2023-05-07T09:06:43.321Z,147887.69
2023-05-07T09:07:47.971Z,147914.34
2023-05-07T09:08:55.528Z,147917.97
2023-05-07T09:10:06.209Z,147954.34
2023-05-07T09:11:11.556Z,147893.78
2023-05-07T09:12:13.763Z,147950.72
2023-05-07T09:13:19.173Z,147985.84
2023-05-07T09:14:22.917Z,148059.81
2023-05-07T09:15:26.027Z,148039.19
2023-05-07T09:16:31.341Z,148091.31
2023-05-07T09:17:35.326Z,148090.09
2023-05-07T09:18:42.142Z,148159.19
2023-05-07T09:19:47.808Z,148166.44
2023-05-07T09:20:52.020Z,148126.47
2023-05-07T09:22:02.160Z,148172.50
2023-05-07T09:23:08.509Z,148182.19
2023-05-07T09:24:11.373Z,148222.22
2023-05-07T09:25:28.405Z,148271.97
2023-05-07T09:26:30.920Z,148230.69
2023-05-07T09:27:33.111Z,148224.66
2023-05-07T09:28:35.790Z,148276.81
2023-05-07T09:29:38.233Z,148274.38
2023-05-07T09:30:42.070Z,148270.75
2023-05-07T09:31:46.707Z,148297.44
2023-05-07T09:32:52.084Z,148281.66
2023-05-07T09:33:58.186Z,148344.69
2023-05-07T09:35:03.532Z,148399.28
2023-05-07T09:36:07.033Z,148393.25
2023-05-07T09:37:10.116Z,148400.50
2023-05-07T09:38:13.760Z,148383.56
2023-05-07T09:39:15.971Z,148376.25
2023-05-07T09:40:25.511Z,148444.16
2023-05-07T09:41:30.927Z,148483.03
2023-05-07T09:42:45.117Z,148485.44
2023-05-07T09:43:54.202Z,148530.31
2023-05-07T09:44:57.087Z,148521.84
2023-05-07T09:46:28.607Z,148492.72
2023-05-07T09:47:34.365Z,148427.19
2023-05-07T09:48:39.711Z,148415.03
2023-05-07T09:49:48.836Z,148429.63
2023-05-07T09:50:59.527Z,148504.81
2023-05-07T09:52:09.533Z,148606.78
2023-05-07T09:53:15.731Z,148646.88
2023-05-07T09:54:19.280Z,148635.94
2023-05-07T09:55:24.982Z,148631.06
2023-05-07T09:56:28.535Z,148688.13
2023-05-07T09:57:31.817Z,148753.69
2023-05-07T09:58:40.189Z,148764.59
2023-05-07T09:59:44.781Z,148757.34
2023-05-07T10:00:51.336Z,148656.59
2023-05-07T10:01:57.762Z,148569.19
2023-05-07T10:03:02.592Z,148627.44
2023-05-07T10:04:14.320Z,148629.88
2023-05-07T10:05:18.944Z,148660.22
2023-05-07T10:06:21.777Z,148638.34
2023-05-07T10:07:25.245Z,148768.25
2023-05-07T10:08:31.715Z,148747.63
2023-05-07T10:09:39.414Z,148724.56
2023-05-07T10:10:43.779Z,148725.75
2023-05-07T10:11:52.380Z,148713.66
2023-05-07T10:12:56.398Z,148652.94
2023-05-07T10:14:08.706Z,148599.53
2023-05-07T10:15:13.030Z,148642.00
2023-05-07T10:16:18.690Z,148621.38
2023-05-07T10:17:24.508Z,148757.34
2023-05-07T10:18:30.901Z,148752.47
2023-05-07T10:19:39.045Z,148758.53
2023-05-07T10:20:43.975Z,148787.69
2023-05-07T10:21:57.925Z,148837.50
2023-05-07T10:23:05.453Z,148856.94
2023-05-07T10:24:22.580Z,148878.81
2023-05-07T10:25:29.799Z,148883.66
2023-05-07T10:26:34.733Z,148872.72
2023-05-07T10:27:37.773Z,148861.78
2023-05-07T10:28:44.319Z,148878.81
2023-05-07T10:30:01.603Z,148769.47
2023-05-07T10:31:11.702Z,148835.06
2023-05-07T10:32:45.753Z,148900.66
2023-05-07T10:33:57.772Z,148898.22
2023-05-07T10:35:05.885Z,148861.78
2023-05-07T10:36:09.013Z,148886.09
2023-05-07T10:37:12.529Z,148842.41
2023-05-07T10:38:14.857Z,148869.06
2023-05-07T10:39:22.591Z,148870.28
2023-05-07T10:41:22.080Z,148922.53
2023-05-07T10:42:25.820Z,148992.97
2023-05-07T10:43:44.092Z,149036.69
2023-05-07T10:44:52.122Z,149074.41
2023-05-07T10:46:13.241Z,149114.53
2023-05-07T10:47:19.886Z,149050.09
2023-05-07T10:48:32.136Z,149170.47
2023-05-07T10:49:42.460Z,149318.75
2023-05-07T10:50:49.810Z,149257.94
2023-05-07T10:52:22.074Z,149392.97
2023-05-07T10:53:39.328Z,149262.81
2023-05-07T10:54:47.832Z,149340.69
2023-05-07T10:56:12.887Z,149392.97
2023-05-07T10:57:31.916Z,149390.53
2023-05-07T10:58:38.645Z,149450.13
2023-05-07T11:00:38.132Z,149590.06
2023-05-07T11:01:56.062Z,149549.88
2023-05-07T11:03:08.817Z,149502.47
2023-05-07T11:04:35.626Z,149681.34
2023-05-07T11:05:46.960Z,149873.72
2023-05-07T11:07:09.728Z,149870.06
2023-05-07T11:08:20.153Z,149948.00
2023-05-07T11:09:52.295Z,150212.44
2023-05-07T11:10:59.430Z,150099.09
2023-05-07T11:12:36.727Z,149807.97
2023-05-07T11:13:45.109Z,149778.75
2023-05-07T11:14:54.973Z,149486.63
2023-05-07T11:16:06.541Z,149605.91
2023-05-07T11:17:14.915Z,149669.19
2023-05-07T11:18:21.333Z,149670.41
2023-05-07T11:19:54.202Z,149693.53
2023-05-07T11:21:07.209Z,149740.97
2023-05-07T11:22:32.882Z,149678.91
2023-05-07T11:23:55.321Z,149559.59
2023-05-07T11:25:04.849Z,149538.94
2023-05-07T11:26:08.621Z,149520.69
2023-05-07T11:27:11.153Z,149751.91
2023-05-07T11:28:13.773Z,149949.22
2023-05-07T11:29:23.505Z,150022.38
2023-05-07T11:30:31.101Z,149937.03
2023-05-07T11:31:33.665Z,149912.69
2023-05-07T11:32:37.043Z,149902.94
2023-05-07T11:33:39.634Z,149665.53
2023-05-07T11:35:43.728Z,149484.19
2023-05-07T11:36:48.794Z,149407.56
2023-05-07T11:38:01.510Z,149452.56
2023-05-07T11:39:05.529Z,149327.25
2023-05-07T11:40:10.363Z,149338.28
2023-05-07T11:41:12.808Z,149333.41
2023-05-07T11:42:27.870Z,149296.84
2023-05-07T11:43:30.047Z,149232.41
2023-05-07T11:44:46.883Z,149321.19
2023-05-07T11:45:50.446Z,149289.56
2023-05-07T11:46:52.727Z,149292.00
2023-05-07T11:47:54.978Z,149243.38
2023-05-07T11:48:57.889Z,149165.56
2023-05-07T11:50:05.931Z,149087.75
2023-05-07T11:51:13.094Z,149044.03
2023-05-07T11:52:16.483Z,149090.19
2023-05-07T11:53:18.628Z,149051.31
2023-05-07T11:54:22.305Z,149008.78
2023-05-07T11:55:25.916Z,149005.16
2023-05-07T11:56:28.137Z,148976.00
2023-05-07T11:57:30.630Z,148929.81
2023-05-07T11:58:32.823Z,148983.28
2023-05-07T11:59:48.556Z,149044.03
2023-05-07T12:00:54.410Z,149028.22
2023-05-07T12:02:00.326Z,149073.19
2023-05-07T12:03:06.365Z,149199.59
2023-05-07T12:04:09.040Z,149185.03
2023-05-07T12:05:11.655Z,149262.81
2023-05-07T12:06:16.371Z,149272.56
2023-05-07T12:07:19.273Z,149185.03
2023-05-07T12:08:22.624Z,149171.69
2023-05-07T12:09:24.877Z,149119.41
2023-05-07T12:10:27.131Z,149019.72
2023-05-07T12:11:29.303Z,148963.81
2023-05-07T12:12:31.427Z,148962.59
2023-05-07T12:13:33.588Z,149023.34
2023-05-07T12:14:43.342Z,149005.16
2023-05-07T12:15:45.664Z,148992.97
2023-05-07T12:16:48.074Z,148901.88
2023-05-07T12:17:51.587Z,148893.38
2023-05-07T12:18:55.966Z,148905.50
2023-05-07T12:19:58.265Z,148906.75
2023-05-07T12:21:00.789Z,148912.84
2023-05-07T12:22:08.263Z,148976.00
2023-05-07T12:23:11.475Z,148976.00
2023-05-07T12:24:15.801Z,148948.06
2023-05-07T12:25:20.984Z,148928.59
2023-05-07T12:26:23.193Z,148906.75
2023-05-07T12:27:27.544Z,148889.75
2023-05-07T12:28:29.838Z,148870.28